Time;durP1;ratioP1;P1;durP2;ratioP2;P2;SDS_P1;SDS_P2;PMS_P1;PMS_P2;Temp;Humidity;BMP_temperature;BMP_pressure;BME280_temperature;BME280_humidity;BME280_pressure;Samples;Min_cycle;Max_cycle;Signal;HPM_P1;HPM_P2
2022/06/05 03:03:39;;;;;;;22.50;20.80;;;16.80;99.90;;;;;;5012902;28;20179;-79
2022/06/05 03:06:05;;;;;;;22.70;21.17;;;16.90;99.90;;;;;;5012491;28;20184;-79
2022/06/05 03:08:31;;;;;;;21.67;19.97;;;16.90;99.90;;;;;;5013384;28;20278;-79
2022/06/05 03:10:57;;;;;;;20.23;18.87;;;16.90;99.90;;;;;;5014772;28;20211;-79
2022/06/05 03:13:22;;;;;;;21.73;20.00;;;16.90;99.90;;;;;;5014714;28;20217;-79
2022/06/05 03:15:49;;;;;;;22.77;21.17;;;16.90;99.90;;;;;;5035011;23;20235;-83
2022/06/05 03:18:15;;;;;;;21.60;19.90;;;16.90;99.90;;;;;;5015374;28;20179;-83
2022/06/05 03:20:42;;;;;;;23.87;18.97;;;16.90;99.90;;;;;;5018568;28;20206;-83
2022/06/05 03:23:09;;;;;;;20.00;18.60;;;16.90;99.90;;;;;;5029188;28;20186;-82
2022/06/05 03:25:38;;;;;;;22.37;20.77;;;16.90;99.90;;;;;;5034548;28;20352;-82
2022/06/05 03:28:05;;;;;;;19.17;17.90;;;16.90;99.90;;;;;;5034848;28;20187;-82
2022/06/05 03:30:31;;;;;;;22.43;20.83;;;16.90;99.90;;;;;;5033522;28;20186;-82
2022/06/05 03:32:57;;;;;;;22.13;20.73;;;17.00;99.90;;;;;;5030280;28;20200;-82
2022/06/05 03:35:23;;;;;;;23.87;22.10;;;17.00;99.90;;;;;;5016977;28;20202;-82
2022/06/05 03:37:49;;;;;;;16.87;15.23;;;17.10;99.90;;;;;;5016622;28;20186;-82
2022/06/05 03:40:16;;;;;;;20.70;19.10;;;17.10;99.90;;;;;;5038082;28;20163;-82
2022/06/05 03:42:43;;;;;;;23.90;22.20;;;17.20;99.90;;;;;;5052634;28;20182;-82
2022/06/05 03:45:17;;;;;;;25.63;23.93;;;17.30;99.90;;;;;;5045497;28;20205;-83
2022/06/05 03:47:44;;;;;;;18.43;17.03;;;17.40;99.90;;;;;;5044345;28;20191;-82
2022/06/05 03:50:11;;;;;;;22.67;21.07;;;17.40;99.90;;;;;;5039950;28;20244;-83
2022/06/05 03:52:37;;;;;;;34.40;32.07;;;17.50;99.90;;;;;;5028999;28;20222;-83
2022/06/05 03:55:04;;;;;;;24.97;23.07;;;17.50;99.90;;;;;;5022993;28;20200;-82
2022/06/05 03:57:30;;;;;;;58.30;54.87;;;17.60;99.90;;;;;;5022315;28;20184;-82
2022/06/05 03:59:55;;;;;;;180.33;171.10;;;17.70;99.90;;;;;;5022365;28;20185;-83
2022/06/05 04:02:25;;;;;;;152.73;144.93;;;17.70;99.90;;;;;;5020005;28;20195;-82
2022/06/05 04:04:51;;;;;;;98.13;92.90;;;17.80;99.90;;;;;;5021779;28;20211;-82
2022/06/05 04:07:17;;;;;;;73.63;69.63;;;17.80;99.90;;;;;;5019959;28;20191;-82
2022/06/05 04:09:43;;;;;;;71.27;67.47;;;17.90;99.90;;;;;;5019204;28;20183;-82
2022/06/05 04:12:09;;;;;;;94.00;89.17;;;18.00;99.90;;;;;;5039658;28;20170;-83
2022/06/05 04:14:35;;;;;;;118.37;112.33;;;18.00;99.90;;;;;;5057189;28;20219;-83
2022/06/05 04:17:00;;;;;;;173.23;164.30;;;18.00;99.90;;;;;;5055387;28;20183;-83
2022/06/05 04:19:27;;;;;;;223.10;211.50;;;18.10;99.90;;;;;;5045343;28;20187;-83
2022/06/05 04:21:52;;;;;;;213.13;202.03;;;18.10;99.90;;;;;;5040814;28;20187;-83
2022/06/05 04:24:20;;;;;;;229.70;217.50;;;18.10;99.90;;;;;;5040593;28;20185;-82
2022/06/05 04:26:45;;;;;;;220.23;208.53;;;18.10;99.90;;;;;;5039564;28;20191;-84
2022/06/05 04:29:12;;;;;;;219.37;207.77;;;18.10;99.90;;;;;;5039811;28;20178;-83
2022/06/05 04:31:44;;;;;;;250.17;236.93;;;18.10;99.90;;;;;;5039605;28;20183;-83
2022/06/05 04:34:13;;;;;;;257.93;244.03;;;18.10;99.90;;;;;;5039109;28;20207;-83
2022/06/05 04:36:39;;;;;;;244.67;231.83;;;18.20;99.90;;;;;;5038565;28;20195;-83
2022/06/05 04:39:05;;;;;;;178.93;169.50;;;18.10;99.90;;;;;;5040619;28;20185;-82
2022/06/05 04:41:31;;;;;;;138.47;130.80;;;18.10;99.90;;;;;;5039026;28;20235;-83
2022/06/05 04:43:58;;;;;;;175.43;166.40;;;18.10;99.90;;;;;;5034899;28;20659;-82
2022/06/05 04:46:25;;;;;;;94.60;89.47;;;18.10;99.90;;;;;;5016198;28;20211;-75
2022/06/05 04:48:51;;;;;;;43.23;40.70;;;18.00;99.90;;;;;;5010537;28;20180;-74
2022/06/05 04:51:21;;;;;;;27.37;25.53;;;17.90;99.90;;;;;;5013789;28;20198;-75
2022/06/05 04:53:49;;;;;;;22.57;21.07;;;17.90;99.90;;;;;;5013058;28;20596;-75
2022/06/05 04:56:18;;;;;;;24.93;23.23;;;17.80;99.90;;;;;;5015421;28;20196;-75
2022/06/05 04:58:45;;;;;;;31.07;29.23;;;17.80;99.90;;;;;;5012722;28;20176;-75
2022/06/05 05:01:12;;;;;;;25.93;24.23;;;17.90;99.90;;;;;;5016670;28;20179;-75
2022/06/05 05:03:38;;;;;;;24.20;22.50;;;17.80;99.90;;;;;;5032061;28;20274;-75
2022/06/05 05:06:04;;;;;;;26.97;25.23;;;17.90;99.90;;;;;;5031718;28;20761;-75
2022/06/05 05:08:30;;;;;;;31.47;29.47;;;17.90;99.90;;;;;;5032605;28;20187;-75
2022/06/05 05:10:56;;;;;;;46.50;43.80;;;17.90;99.90;;;;;;5029866;28;20249;-75
2022/06/05 05:13:22;;;;;;;31.53;29.57;;;17.90;99.90;;;;;;5013287;28;20682;-74
2022/06/05 05:15:49;;;;;;;27.40;25.50;;;17.90;99.90;;;;;;5013407;28;20303;-75
2022/06/05 05:18:15;;;;;;;19.60;18.20;;;17.90;99.90;;;;;;5012585;28;20534;-75
2022/06/05 05:20:41;;;;;;;16.40;15.23;;;17.90;99.90;;;;;;5012953;28;20186;-75
2022/06/05 05:23:07;;;;;;;17.00;15.73;;;17.90;99.90;;;;;;5032774;28;20650;-75
2022/06/05 05:25:33;;;;;;;14.80;13.67;;;17.80;99.90;;;;;;5031467;28;20589;-75
2022/06/05 05:27:59;;;;;;;16.13;14.87;;;17.80;99.90;;;;;;5031175;28;20194;-75
2022/06/05 05:30:25;;;;;;;16.53;15.07;;;17.80;99.90;;;;;;5031304;28;20179;-75
2022/06/05 05:32:51;;;;;;;42.13;39.53;;;17.80;99.90;;;;;;5014105;28;20203;-75
2022/06/05 05:35:18;;;;;;;48.00;45.17;;;17.90;99.90;;;;;;5012679;28;20285;-75
2022/06/05 05:37:44;;;;;;;116.90;110.43;;;17.80;99.90;;;;;;5011370;28;20275;-75
2022/06/05 05:42:54;;;;;;;189.63;179.47;;;17.60;99.90;;;;;;5030293;28;20194;-74
2022/06/05 05:45:20;;;;;;;243.70;230.97;;;17.50;99.90;;;;;;5032627;28;20210;-79
2022/06/05 05:47:46;;;;;;;96.83;91.53;;;17.30;99.90;;;;;;5030698;28;20191;-74
2022/06/05 05:50:15;;;;;;;48.30;45.37;;;17.20;99.90;;;;;;5031304;28;20217;-75
2022/06/05 05:52:43;;;;;;;37.33;34.53;;;17.10;99.90;;;;;;5015690;28;20309;-74
2022/06/05 05:55:14;;;;;;;27.23;25.13;;;17.00;99.90;;;;;;5015073;28;20195;-75
2022/06/05 05:57:40;;;;;;;20.67;18.97;;;17.00;99.90;;;;;;5010842;28;20303;-75
2022/06/05 06:00:09;;;;;;;26.90;24.87;;;16.90;99.90;;;;;;5012297;28;20203;-74
2022/06/05 06:02:36;;;;;;;315.60;297.13;;;16.80;99.90;;;;;;5025917;28;20257;-74
2022/06/05 06:05:03;;;;;;;200.70;188.23;;;16.80;99.90;;;;;;5031801;28;20202;-75
2022/06/05 06:07:29;;;;;;;113.03;105.43;;;16.70;99.90;;;;;;5031369;28;20186;-75
2022/06/05 06:09:55;;;;;;;179.50;168.13;;;16.70;99.90;;;;;;5031966;28;20278;-75
2022/06/05 06:12:22;;;;;;;133.73;126.13;;;16.70;99.90;;;;;;5017657;28;20179;-75
2022/06/05 06:14:48;;;;;;;118.83;111.90;;;16.80;99.90;;;;;;5010155;28;20219;-74
2022/06/05 06:17:14;;;;;;;134.73;126.53;;;16.80;99.90;;;;;;5011882;28;20262;-75
2022/06/05 06:19:40;;;;;;;104.67;97.90;;;16.80;99.90;;;;;;5011994;28;20202;-74
2022/06/05 06:22:06;;;;;;;111.83;104.90;;;16.80;99.90;;;;;;5022166;28;20175;-72
2022/06/05 06:24:32;;;;;;;142.13;133.83;;;16.80;99.90;;;;;;5029571;28;20270;-75
2022/06/05 06:26:58;;;;;;;182.10;170.30;;;16.80;99.90;;;;;;5031553;28;20862;-72
2022/06/05 06:29:23;;;;;;;187.40;176.10;;;16.90;99.90;;;;;;5031377;28;20186;-72
2022/06/05 06:31:49;;;;;;;183.80;173.23;;;16.90;99.90;;;;;;5026711;28;20257;-73
2022/06/05 06:34:15;;;;;;;142.33;133.93;;;16.90;99.90;;;;;;5031890;28;20203;-74
2022/06/05 06:36:41;;;;;;;48.13;44.73;;;16.90;99.90;;;;;;5031035;28;20230;-73
2022/06/05 06:39:07;;;;;;;31.03;28.30;;;17.00;99.90;;;;;;5030916;28;20805;-73
2022/06/05 06:41:32;;;;;;;20.83;18.83;;;17.00;99.90;;;;;;5024850;28;20191;-72
2022/06/05 06:43:58;;;;;;;44.50;36.50;;;17.00;99.90;;;;;;5011238;28;20237;-73
2022/06/05 06:46:24;;;;;;;48.13;44.63;;;16.90;99.90;;;;;;5010493;28;20215;-73
2022/06/05 06:48:51;;;;;;;20.47;18.30;;;17.00;99.90;;;;;;5009916;28;20187;-73
2022/06/05 06:51:18;;;;;;;23.10;21.03;;;17.00;99.90;;;;;;5013035;28;20179;-74
2022/06/05 06:53:44;;;;;;;21.60;19.77;;;16.90;99.90;;;;;;5030163;28;20217;-74
2022/06/05 06:56:16;;;;;;;33.53;30.93;;;16.80;99.90;;;;;;5029702;28;20199;-74
2022/06/05 06:58:42;;;;;;;581.67;539.27;;;16.80;99.90;;;;;;5030822;28;20186;-74
2022/06/05 07:01:09;;;;;;;675.17;632.90;;;16.70;99.90;;;;;;5029447;28;20658;-74
2022/06/05 07:03:36;;;;;;;512.37;479.40;;;16.70;99.90;;;;;;5026970;28;20179;-73
2022/06/05 07:06:03;;;;;;;450.33;420.90;;;16.60;99.90;;;;;;5030467;28;20570;-73
2022/06/05 07:08:29;;;;;;;193.17;181.47;;;16.60;99.90;;;;;;5030605;28;20578;-73
2022/06/05 07:10:56;;;;;;;476.63;447.40;;;16.60;99.90;;;;;;5031473;28;20182;-74
2022/06/05 07:13:22;;;;;;;276.57;260.90;;;16.60;99.90;;;;;;5011571;28;20728;-74
2022/06/05 07:15:47;;;;;;;111.93;105.37;;;16.60;99.90;;;;;;5010347;28;20306;-74
2022/06/05 07:18:13;;;;;;;43.47;40.20;;;16.60;99.90;;;;;;5011078;28;20215;-73
2022/06/05 07:20:42;;;;;;;88.40;82.80;;;16.60;99.90;;;;;;5011198;28;20193;-75
2022/06/05 07:23:09;;;;;;;65.73;61.27;;;16.60;99.90;;;;;;5021584;28;20215;-74
2022/06/05 07:25:36;;;;;;;111.23;104.37;;;16.60;99.90;;;;;;5009555;28;20226;-74
2022/06/05 07:28:03;;;;;;;145.93;137.27;;;16.50;99.90;;;;;;5005324;28;20638;-73
2022/06/05 07:30:29;;;;;;;216.33;204.50;;;16.60;99.90;;;;;;5009781;28;20187;-74
2022/06/05 07:32:55;;;;;;;97.23;91.70;;;16.50;99.90;;;;;;5011678;28;20195;-74
2022/06/05 07:35:21;;;;;;;93.03;87.63;;;16.60;99.90;;;;;;5011158;28;20203;-73
2022/06/05 07:37:48;;;;;;;82.90;78.27;;;16.50;99.90;;;;;;5009545;28;20716;-74
2022/06/05 07:40:16;;;;;;;62.83;58.93;;;16.50;99.90;;;;;;4993712;28;20581;-74
2022/06/05 07:42:43;;;;;;;48.57;45.47;;;16.50;99.90;;;;;;5022268;28;20206;-74
2022/06/05 07:45:14;;;;;;;42.37;39.40;;;16.50;99.90;;;;;;5029368;28;20735;-74
2022/06/05 07:47:44;;;;;;;37.47;34.67;;;16.50;99.90;;;;;;5029337;28;20186;-74
2022/06/05 07:50:12;;;;;;;37.20;34.70;;;16.50;99.90;;;;;;5030503;28;20185;-74
2022/06/05 07:55:22;;;;;;;33.70;30.67;;;16.50;99.90;;;;;;5030820;28;20268;-74
2022/06/05 07:57:48;;;;;;;42.47;39.90;;;16.50;99.90;;;;;;5029006;28;20183;-74
2022/06/05 08:00:16;;;;;;;71.37;67.10;;;16.40;99.90;;;;;;5030718;28;20191;-74
2022/06/05 08:02:42;;;;;;;68.90;64.67;;;16.50;99.90;;;;;;5018310;28;20195;-74
2022/06/05 08:05:09;;;;;;;130.10;123.07;;;16.50;99.90;;;;;;5011035;28;20199;-74
2022/06/05 08:07:35;;;;;;;111.37;104.87;;;16.60;99.90;;;;;;5008570;28;20176;-75
2022/06/05 08:10:04;;;;;;;127.33;120.43;;;16.60;99.90;;;;;;5009588;28;20187;-76
2022/06/05 08:12:32;;;;;;;231.17;218.63;;;16.70;99.90;;;;;;5003042;28;20240;-75
2022/06/05 08:15:00;;;;;;;102.87;97.10;;;16.90;99.90;;;;;;5030344;28;20249;-75
2022/06/05 08:17:30;;;;;;;21.07;19.77;;;17.00;99.90;;;;;;5032267;28;20191;-75
2022/06/05 08:19:57;;;;;;;29.73;28.03;;;17.10;99.90;;;;;;5034408;28;20286;-76
2022/06/05 08:22:24;;;;;;;65.83;62.13;;;17.20;99.90;;;;;;5024483;28;20187;-76
2022/06/05 08:24:52;;;;;;;55.47;52.23;;;17.30;99.90;;;;;;5012802;28;20199;-76
2022/06/05 08:27:21;;;;;;;63.83;60.33;;;17.30;99.90;;;;;;5012324;28;20187;-75
2022/06/05 08:29:47;;;;;;;20.33;18.50;;;17.50;99.90;;;;;;5012756;28;20650;-76
2022/06/05 08:32:13;;;;;;;32.97;31.00;;;17.70;99.90;;;;;;5021842;28;20262;-73
2022/06/05 08:34:41;;;;;;;40.23;37.90;;;17.80;99.90;;;;;;5033179;28;20217;-74
2022/06/05 08:43:01;;;;;;;52.57;49.77;;;18.70;99.90;;;;;;5022131;28;20218;-73
2022/06/05 08:45:36;;;;;;;58.13;55.00;;;19.10;99.90;;;;;;5013675;28;20731;-72
2022/06/05 08:48:28;;;;;;;35.20;33.03;;;19.50;99.90;;;;;;5012792;28;20195;-74
2022/06/05 08:51:00;;;;;;;28.13;26.63;;;20.10;99.90;;;;;;4986400;28;20192;-72
2022/06/05 08:53:39;;;;;;;25.80;23.90;;;20.70;99.90;;;;;;5029834;28;20215;-73
2022/06/05 08:56:07;;;;;;;67.37;63.63;;;21.30;99.90;;;;;;5033048;28;20621;-72
2022/06/05 08:58:44;;;;;;;54.75;52.03;;;21.70;99.90;;;;;;5032905;28;20183;-72
2022/06/05 09:01:23;;;;;;;59.85;56.85;;;21.80;99.90;;;;;;5033146;28;20186;-78
2022/06/05 09:04:02;;;;;;;109.97;104.43;;;22.30;99.90;;;;;;4997663;28;20238;-74
2022/06/05 09:06:43;;;;;;;77.65;73.57;;;22.60;99.90;;;;;;5013022;28;20303;-74
2022/06/05 09:09:41;;;;;;;52.05;49.17;;;22.60;99.90;;;;;;5012561;28;20183;-73
2022/06/05 09:12:11;;;;;;;57.72;54.78;;;22.40;99.90;;;;;;4995188;28;20194;-73
2022/06/05 09:15:01;;;;;;;24.65;23.40;;;22.50;99.90;;;;;;5031613;28;20241;-73
2022/06/05 09:17:28;;;;;;;28.60;27.05;;;22.10;99.90;;;;;;5031332;28;20210;-74
2022/06/05 09:19:57;;;;;;;23.05;21.88;;;21.80;99.90;;;;;;5030929;28;20228;-73
2022/06/05 09:22:33;;;;;;;39.33;37.38;;;22.00;99.90;;;;;;5021851;28;20184;-73
2022/06/05 09:25:08;;;;;;;25.63;24.00;;;22.20;99.90;;;;;;5012616;28;20225;-75
2022/06/05 09:27:46;;;;;;;45.38;42.97;;;22.10;99.90;;;;;;5011715;28;20647;-73
2022/06/05 09:30:15;;;;;;;55.97;53.00;;;22.20;99.90;;;;;;5012737;28;20179;-73
2022/06/05 09:33:09;;;;;;;45.90;43.50;;;22.10;99.90;;;;;;5023683;28;20217;-72
2022/06/05 09:35:54;;;;;;;26.92;25.25;;;22.30;99.90;;;;;;5033161;28;20210;-75
2022/06/05 09:38:36;;;;;;;9.93;9.35;;;22.90;99.90;;;;;;5032302;28;20183;-73
2022/06/05 09:41:11;;;;;;;4.88;4.07;;;23.30;99.90;;;;;;5031262;28;20265;-72
2022/06/05 09:43:57;;;;;;;74.32;70.60;;;23.80;99.90;;;;;;5013313;28;20687;-73
2022/06/05 09:46:52;;;;;;;86.15;82.07;;;23.90;99.90;;;;;;5011261;28;20223;-71
2022/06/05 09:49:49;;;;;;;101.90;96.93;;;24.00;99.90;;;;;;5012338;28;20183;-73
2022/06/05 09:52:21;;;;;;;62.63;59.58;;;24.10;99.90;;;;;;5012153;28;20249;-72
2022/06/05 09:55:01;;;;;;;66.63;63.42;;;24.00;99.90;;;;;;5012197;28;20206;-73
2022/06/05 10:00:42;;;;;;;101.63;96.72;;;23.50;99.90;;;;;;5012106;28;20231;-74
2022/06/05 10:03:16;;;;;;;113.15;107.65;;;23.20;99.90;;;;;;5025946;28;20214;-72
2022/06/05 10:06:03;;;;;;;27.50;26.20;;;22.80;99.90;;;;;;5031985;28;20689;-77
2022/06/05 10:08:38;;;;;;;5.57;5.28;;;22.50;99.90;;;;;;5029879;28;20198;-77
2022/06/05 10:11:22;;;;;;;8.45;7.93;;;22.40;99.90;;;;;;5031724;28;20553;-77
2022/06/05 10:14:16;;;;;;;5.60;5.30;;;22.50;99.90;;;;;;5011663;28;20190;-77
2022/06/05 10:17:14;;;;;;;4.70;4.40;;;22.60;99.90;;;;;;5011222;28;20223;-77
2022/06/05 10:20:21;;;;;;;5.07;4.68;;;22.80;99.90;;;;;;4959974;28;20195;-77
2022/06/05 10:22:56;;;;;;;5.22;4.88;;;22.80;99.90;;;;;;5001028;28;20296;-77
2022/06/05 10:25:42;;;;;;;5.57;4.95;;;22.80;99.90;;;;;;5031677;28;20206;-77
2022/06/05 10:28:21;;;;;;;6.93;6.43;;;23.00;99.90;;;;;;5031134;28;20182;-78
2022/06/05 10:31:20;;;;;;;6.28;5.72;;;22.90;99.90;;;;;;5032055;28;20182;-77
2022/06/05 10:33:55;;;;;;;5.50;5.10;;;22.80;99.90;;;;;;5028019;28;20720;-77
2022/06/05 10:36:44;;;;;;;6.07;5.68;;;22.80;99.90;;;;;;5031649;28;20668;-78
2022/06/05 10:39:22;;;;;;;6.53;6.15;;;23.00;99.90;;;;;;5030850;28;20179;-77
2022/06/05 10:41:57;;;;;;;5.32;5.07;;;23.00;99.90;;;;;;5028906;28;20249;-77
2022/06/05 10:44:53;;;;;;;29.67;28.17;;;23.00;99.90;;;;;;5010945;28;20214;-78
2022/06/05 10:47:27;;;;;;;94.05;89.63;;;23.60;99.90;;;;;;5008536;28;20568;-78
2022/06/05 10:50:11;;;;;;;118.70;112.78;;;23.80;99.90;;;;;;5011616;28;20617;-78
2022/06/05 10:53:29;;;;;;;115.47;109.75;;;23.90;99.90;;;;;;5020061;28;20190;-76
2022/06/05 10:56:26;;;;;;;38.53;36.40;;;24.10;99.90;;;;;;5017792;28;20215;-77
2022/06/05 10:59:30;;;;;;;21.20;20.10;;;24.10;99.90;;;;;;5006187;28;20188;-76
2022/06/05 11:02:16;;;;;;;11.25;10.35;;;23.90;99.90;;;;;;4994180;28;20183;-76
2022/06/05 11:05:26;;;;;;;10.23;9.35;;;23.70;99.90;;;;;;5010979;28;20186;-76
2022/06/05 11:08:26;;;;;;;11.57;9.90;;;23.60;99.90;;;;;;5010752;28;20180;-76
2022/06/05 11:14:17;;;;;;;69.47;65.63;;;22.90;99.90;;;;;;5028878;28;20193;-76
2022/06/05 11:16:49;;;;;;;6.82;6.32;;;22.50;99.90;;;;;;5029660;28;20250;-76
2022/06/05 11:19:37;;;;;;;6.80;5.03;;;21.70;99.90;;;;;;5029182;28;20860;-75
2022/06/05 11:22:10;;;;;;;7.45;6.80;;;21.10;99.90;;;;;;5026974;28;20183;-75
2022/06/05 11:24:46;;;;;;;16.10;14.90;;;20.50;99.90;;;;;;5008826;28;20215;-76
2022/06/05 11:27:37;;;;;;;162.83;154.53;;;20.00;99.90;;;;;;5009252;28;20179;-75
2022/06/05 11:30:24;;;;;;;139.53;132.60;;;19.50;99.90;;;;;;5009905;28;20175;-76
2022/06/05 11:33:19;;;;;;;61.87;58.27;;;19.20;99.90;;;;;;5020269;28;20190;-77
2022/06/05 11:36:18;;;;;;;106.40;101.00;;;19.10;99.90;;;;;;5030108;28;20290;-76
2022/06/05 11:39:18;;;;;;;37.50;35.50;;;18.90;99.90;;;;;;5028902;28;20186;-75
2022/06/05 11:41:50;;;;;;;29.37;27.53;;;18.90;99.90;;;;;;5028432;28;20187;-76
2022/06/05 11:44:26;;;;;;;13.10;12.50;;;18.80;99.90;;;;;;5010596;28;20215;-76
2022/06/05 11:47:02;;;;;;;13.63;12.73;;;18.70;99.90;;;;;;5009430;28;20186;-76
2022/06/05 11:49:44;;;;;;;26.10;24.50;;;18.60;99.90;;;;;;5010087;28;20832;-77
2022/06/05 11:52:21;;;;;;;96.97;91.90;;;18.70;99.90;;;;;;5015132;28;20669;-76
2022/06/05 11:55:06;;;;;;;81.03;76.83;;;18.60;99.90;;;;;;5034248;28;20271;-76
2022/06/05 11:57:56;;;;;;;128.43;121.70;;;18.60;99.90;;;;;;5033603;28;20193;-77
2022/06/05 12:00:36;;;;;;;90.50;85.83;;;18.70;99.90;;;;;;5034570;28;20278;-78
2022/06/05 12:03:15;;;;;;;105.00;99.47;;;18.70;99.90;;;;;;5022767;28;20690;-76
2022/06/05 12:05:41;;;;;;;78.97;74.87;;;18.80;99.90;;;;;;5013118;28;20300;-76
2022/06/05 12:08:21;;;;;;;68.70;64.90;;;18.80;99.90;;;;;;5012880;28;20280;-76
2022/06/05 12:10:53;;;;;;;85.07;80.67;;;19.00;99.90;;;;;;5013075;28;20844;-77
2022/06/05 12:13:28;;;;;;;85.33;80.83;;;19.10;99.90;;;;;;5027582;28;20187;-76
2022/06/05 12:16:02;;;;;;;87.10;82.43;;;19.20;99.90;;;;;;5033469;28;20214;-76
2022/06/05 12:18:35;;;;;;;81.33;77.17;;;19.20;99.90;;;;;;5032920;28;20186;-76
2022/06/05 12:21:14;;;;;;;19.60;18.60;;;19.30;99.90;;;;;;5032555;28;20256;-76
2022/06/05 12:23:44;;;;;;;24.20;22.80;;;19.30;99.90;;;;;;5016963;28;20741;-76
2022/06/05 12:26:12;;;;;;;20.67;19.43;;;19.50;99.90;;;;;;5013476;28;20210;-77
2022/06/05 12:28:44;;;;;;;17.67;16.77;;;19.60;99.90;;;;;;5011412;28;20534;-73
2022/06/05 12:31:17;;;;;;;15.13;14.20;;;19.90;99.90;;;;;;5014616;28;20542;-77
2022/06/05 12:33:46;;;;;;;143.60;136.43;;;20.50;99.90;;;;;;5032495;28;20286;-78
2022/06/05 12:36:24;;;;;;;34.27;32.50;;;21.10;99.90;;;;;;5006190;28;20231;-76
2022/06/05 12:38:52;;;;;;;57.30;54.13;;;21.50;99.90;;;;;;4996281;28;20266;-78
2022/06/05 12:41:40;;;;;;;121.70;115.78;;;22.20;99.90;;;;;;4993509;28;20184;-76
2022/06/05 12:44:26;;;;;;;72.45;68.78;;;23.10;99.90;;;;;;4994059;28;20218;-76
2022/06/05 12:47:04;;;;;;;52.33;49.67;;;24.00;99.90;;;;;;4997322;28;20571;-78
2022/06/05 12:49:54;;;;;;;17.10;16.30;;;24.80;99.90;;;;;;5012495;28;20187;-76
2022/06/05 12:52:38;;;;;;;7.03;6.43;;;25.20;99.90;;;;;;5020210;28;20175;-77
2022/06/05 12:55:42;;;;;;;4.40;3.67;;;24.50;99.90;;;;;;5026119;28;20205;-77
2022/06/05 12:58:08;;;;;;;6.57;6.25;;;24.30;99.90;;;;;;5011668;28;20270;-77
2022/06/05 13:00:48;;;;;;;137.68;130.75;;;24.80;99.90;;;;;;5014081;28;20186;-77
2022/06/05 13:03:36;;;;;;;121.18;114.97;;;25.20;99.90;;;;;;5026213;28;20210;-77
2022/06/05 13:06:15;;;;;;;4.00;3.80;;;26.40;99.90;;;;;;5033759;28;20206;-77
2022/06/05 13:08:47;;;;;;;21.42;19.98;;;28.30;99.90;;;;;;4996828;28;20219;-77
2022/06/05 13:11:25;;;;;;;35.17;33.53;;;28.70;99.90;;;;;;5005547;28;20192;-76
2022/06/05 13:14:00;;;;;;;14.98;14.10;;;29.10;99.90;;;;;;5030359;28;20229;-76
2022/06/05 13:16:50;;;;;;;12.93;12.23;;;30.00;99.90;;;;;;5018647;28;20688;-76
2022/06/05 13:19:51;;;;;;;8.63;8.27;;;29.50;99.90;;;;;;4993525;28;20560;-76
2022/06/05 13:22:48;;;;;;;11.95;11.35;;;29.00;99.90;;;;;;4972284;28;20214;-76
2022/06/05 13:25:20;;;;;;;13.30;12.60;;;27.40;99.90;;;;;;5019412;28;20215;-76
2022/06/05 13:27:52;;;;;;;65.60;62.35;;;26.60;99.90;;;;;;4993187;28;20176;-76
2022/06/05 13:30:21;;;;;;;46.00;43.83;;;26.30;99.90;;;;;;4993885;28;20668;-76
2022/06/05 13:33:07;;;;;;;9.45;8.85;;;25.80;99.90;;;;;;5013649;28;20651;-76
2022/06/05 13:35:57;;;;;;;9.48;8.80;;;25.80;99.90;;;;;;5032488;28;20214;-76
2022/06/05 13:38:44;;;;;;;6.07;4.35;;;25.70;99.90;;;;;;5024580;28;20227;-76
2022/06/05 13:41:44;;;;;;;4.35;4.15;;;25.70;99.90;;;;;;4993286;28;20188;-76
2022/06/05 13:44:23;;;;;;;9.55;9.05;;;26.00;99.90;;;;;;4992759;28;20588;-76
2022/06/05 13:47:17;;;;;;;7.22;6.82;;;26.20;99.90;;;;;;5011059;28;20351;-76
2022/06/05 13:50:14;;;;;;;8.32;7.72;;;26.00;99.90;;;;;;5011557;28;20184;-76
2022/06/05 13:52:47;;;;;;;5.78;5.40;;;25.80;99.90;;;;;;5021282;28;20258;-76
2022/06/05 13:55:37;;;;;;;7.50;6.97;;;25.20;99.90;;;;;;5032218;28;20207;-76
2022/06/05 13:58:32;;;;;;;6.28;5.88;;;25.00;99.90;;;;;;5032161;28;20686;-75
2022/06/05 14:01:12;;;;;;;5.13;4.72;;;24.80;99.90;;;;;;5022466;28;20184;-75
2022/06/05 14:03:46;;;;;;;5.57;4.20;;;24.70;99.90;;;;;;5025112;28;20210;-77
2022/06/05 14:06:37;;;;;;;4.93;4.53;;;24.70;99.90;;;;;;5004640;28;20204;-75
2022/06/05 14:09:28;;;;;;;4.63;4.28;;;24.70;99.90;;;;;;4991672;28;20231;-75
2022/06/05 14:11:56;;;;;;;4.57;3.97;;;24.60;99.90;;;;;;4995778;28;20239;-75
2022/06/05 14:14:42;;;;;;;6.05;4.63;;;24.70;99.90;;;;;;5010720;28;20670;-75
2022/06/05 14:17:34;;;;;;;5.97;3.85;;;24.70;99.90;;;;;;5011539;28;20233;-77
2022/06/05 14:20:08;;;;;;;4.40;3.45;;;24.90;99.90;;;;;;5012562;28;20188;-77
2022/06/05 14:22:43;;;;;;;4.80;4.03;;;25.10;99.90;;;;;;5020150;28;20302;-76
2022/06/05 14:25:20;;;;;;;4.25;3.95;;;25.10;99.90;;;;;;4993565;28;20207;-77
2022/06/05 14:27:53;;;;;;;3.53;3.33;;;25.20;99.90;;;;;;4990402;28;20194;-76
2022/06/05 14:30:22;;;;;;;5.90;5.45;;;25.30;99.90;;;;;;4991851;28;20234;-77
2022/06/05 14:32:48;;;;;;;5.10;4.70;;;25.50;99.90;;;;;;5008385;28;20190;-76
2022/06/05 14:35:17;;;;;;;6.65;6.25;;;25.40;99.90;;;;;;5018531;28;20676;-76
2022/06/05 14:38:16;;;;;;;5.07;4.28;;;25.50;99.90;;;;;;4992322;28;20239;-76
2022/06/05 14:40:54;;;;;;;5.38;4.97;;;25.30;99.90;;;;;;4940340;28;20198;-77
2022/06/05 14:43:40;;;;;;;6.30;5.88;;;24.90;99.90;;;;;;5008222;28;20199;-76
2022/06/05 14:46:11;;;;;;;7.13;6.10;;;24.90;99.90;;;;;;5011953;28;20206;-76
2022/06/05 14:49:07;;;;;;;6.22;3.95;;;24.80;99.90;;;;;;5010305;28;20176;-77
2022/06/05 14:51:32;;;;;;;4.25;4.05;;;24.90;99.90;;;;;;4983929;28;20196;-76
2022/06/05 14:54:16;;;;;;;4.13;3.92;;;25.00;99.90;;;;;;5028291;28;20186;-76
2022/06/05 15:00:09;;;;;;;8.55;7.85;;;24.40;99.90;;;;;;4991991;28;20806;-76
2022/06/05 15:03:10;;;;;;;33.42;31.63;;;24.10;99.90;;;;;;5002033;28;20194;-76
2022/06/05 15:05:45;;;;;;;24.67;23.25;;;23.90;99.90;;;;;;5012505;28;20208;-76
2022/06/05 15:08:14;;;;;;;25.63;24.17;;;23.80;99.90;;;;;;4991596;28;20180;-74
2022/06/05 15:10:47;;;;;;;24.10;22.48;;;23.70;99.90;;;;;;4990740;28;20547;-76
2022/06/05 15:13:26;;;;;;;30.13;28.45;;;23.80;99.90;;;;;;5014710;28;20186;-75
2022/06/05 15:16:14;;;;;;;29.25;27.63;;;23.90;99.90;;;;;;5031230;28;20245;-73
2022/06/05 15:18:40;;;;;;;28.60;27.02;;;23.90;99.90;;;;;;5023646;28;20200;-75
2022/06/05 15:21:16;;;;;;;31.02;29.40;;;24.00;99.90;;;;;;4991425;28;20271;-75
2022/06/05 15:23:51;;;;;;;9.13;8.43;;;24.00;99.90;;;;;;5021887;28;20674;-73
2022/06/05 15:26:39;;;;;;;11.07;10.30;;;24.10;99.90;;;;;;5003679;28;20226;-74
2022/06/05 15:29:17;;;;;;;30.30;28.60;;;24.00;99.90;;;;;;4993691;28;20714;-74
2022/06/05 15:31:46;;;;;;;31.08;29.40;;;24.00;99.90;;;;;;4995659;28;20190;-73
2022/06/05 15:34:33;;;;;;;29.42;27.83;;;23.90;99.90;;;;;;5031856;28;20181;-74
2022/06/05 15:37:22;;;;;;;24.40;23.05;;;23.80;99.90;;;;;;5033621;28;20721;-73
2022/06/05 15:39:52;;;;;;;29.85;28.20;;;23.70;99.90;;;;;;5013644;28;20195;-75
2022/06/05 15:42:40;;;;;;;28.45;27.05;;;23.70;99.90;;;;;;5006094;28;20187;-75
2022/06/05 15:45:37;;;;;;;30.15;28.60;;;23.80;99.90;;;;;;5033470;28;20206;-76
2022/06/05 15:48:29;;;;;;;32.20;30.48;;;24.00;99.90;;;;;;4997647;28;20196;-75
2022/06/05 15:51:37;;;;;;;24.23;22.85;;;24.10;99.90;;;;;;4993821;28;20184;-75
2022/06/05 15:54:22;;;;;;;30.58;29.05;;;24.10;99.90;;;;;;5029104;28;20186;-75
2022/06/05 15:56:56;;;;;;;22.75;21.48;;;24.30;99.90;;;;;;4996435;28;20315;-75
2022/06/05 16:00:06;;;;;;;26.10;24.60;;;24.30;99.90;;;;;;4995138;28;20227;-75
2022/06/05 16:02:32;;;;;;;28.02;26.40;;;23.90;99.90;;;;;;4957581;28;20355;-74
2022/06/05 16:05:04;;;;;;;87.57;82.72;;;23.50;99.90;;;;;;4957056;28;20755;-74
2022/06/05 16:07:42;;;;;;;45.83;42.55;;;22.50;99.90;;;;;;5468536;23;20196;-74
2022/06/05 16:10:32;;;;;;;673.97;626.97;;;20.40;99.90;;;;;;5012543;28;20183;-74
2022/06/05 16:13:01;;;;;;;240.10;226.73;;;19.00;99.90;;;;;;5013949;28;20544;-74
2022/06/05 16:15:47;;;;;;;264.00;247.77;;;18.40;99.90;;;;;;5006112;28;20205;-74
2022/06/05 16:18:24;;;;;;;75.57;70.53;;;18.10;99.90;;;;;;4993081;28;20193;-74
2022/06/05 16:20:56;;;;;;;125.20;118.07;;;17.90;99.90;;;;;;5023747;28;20250;-73
2022/06/05 16:23:30;;;;;;;181.80;171.17;;;17.90;99.90;;;;;;5006740;28;20630;-74
2022/06/05 16:26:24;;;;;;;70.03;66.13;;;17.80;99.90;;;;;;5014885;28;20572;-77
2022/06/05 16:28:53;;;;;;;40.23;37.73;;;17.70;99.90;;;;;;5011448;28;20182;-76